Terminal Aerodrome Forecast
Issued by NWS

Home | Current Version | Previous Version | Text Only | Print | Product List | Glossary On
Versions: 1 2 3 4 5 6 7 8 9 10 11 12 13 14 15 16 17 18 19 20 21 22 23 24 25 26 27 28 29 30 31 32 33 34 35 36 37 38 39 40
000
FTUS45 KPSR 261123
TAFSDL
TAF
KSDL 261123Z 2612/2712 14005KT P6SM VCSH FEW040 OVC060
      TEMPO 2612/2615 VRB10G20KT -SHRA SCT020 OVC040
     FM261500 22008KT P6SM VCSH SCT025 BKN040 OVC050
     FM261900 25014G22KT P6SM SCT040 BKN060 BKN100
     FM270200 29010KT P6SM FEW050 SCT100
     FM270500 VRB04KT P6SM FEW150=

USA.gov is the U.S. government's official web portal to all federal, state and local government web resources and services.